createdAt,value
2023-10-20T00:00:36.645Z,10.74
2023-10-20T00:03:39.954Z,10.97
2023-10-20T00:06:42.779Z,11.02
2023-10-20T00:09:46.778Z,11.07
2023-10-20T00:12:53.736Z,11.17
2023-10-20T00:15:58.608Z,11.12
2023-10-20T00:19:04.123Z,11.25
2023-10-20T00:22:06.953Z,11.26
2023-10-20T00:25:12.791Z,11.09
2023-10-20T00:28:19.441Z,11.16
2023-10-20T00:31:27.868Z,11.32
2023-10-20T00:34:36.679Z,11.15
2023-10-20T00:37:39.325Z,11.13
2023-10-20T00:40:51.286Z,11.30
2023-10-20T00:43:55.580Z,11.23
2023-10-20T00:46:58.511Z,11.11
2023-10-20T00:50:01.376Z,11.26
2023-10-20T00:53:08.437Z,11.23
2023-10-20T00:56:12.370Z,11.00
2023-10-20T00:59:14.899Z,11.20
2023-10-20T01:02:17.629Z,11.02
2023-10-20T01:05:26.574Z,10.94
2023-10-20T01:08:28.839Z,10.97
2023-10-20T01:11:34.031Z,11.06
2023-10-20T01:14:37.247Z,10.95
2023-10-20T01:17:41.056Z,10.73
2023-10-20T01:20:43.486Z,10.92
2023-10-20T01:23:45.804Z,11.01
2023-10-20T01:26:54.886Z,11.11
2023-10-20T01:30:00.029Z,11.14
2023-10-20T01:33:04.023Z,11.11
2023-10-20T01:36:06.701Z,10.96
2023-10-20T01:39:09.688Z,11.10
2023-10-20T01:42:12.641Z,11.18
2023-10-20T01:45:15.177Z,11.26
2023-10-20T01:48:17.872Z,11.28
2023-10-20T01:51:20.225Z,11.16
2023-10-20T01:54:24.544Z,11.06
2023-10-20T01:57:29.342Z,11.12
2023-10-20T02:00:32.635Z,11.21
2023-10-20T02:03:38.487Z,11.23
2023-10-20T02:06:41.643Z,11.42
2023-10-20T02:09:44.243Z,11.35
2023-10-20T02:12:56.698Z,11.13
2023-10-20T02:16:00.897Z,11.19
2023-10-20T02:19:06.020Z,11.22
2023-10-20T02:22:11.653Z,11.28
2023-10-20T02:25:18.198Z,11.40
2023-10-20T02:28:26.208Z,11.20
2023-10-20T02:31:31.460Z,11.12
2023-10-20T02:34:34.431Z,11.28
2023-10-20T02:37:37.285Z,11.42
2023-10-20T02:40:53.121Z,11.23
2023-10-20T02:43:55.989Z,11.29
2023-10-20T02:46:59.079Z,11.26
2023-10-20T02:50:03.362Z,11.36
2023-10-20T02:53:06.103Z,11.47
2023-10-20T02:56:15.813Z,11.62
2023-10-20T02:59:21.229Z,11.60
2023-10-20T03:02:26.701Z,11.60
2023-10-20T03:05:32.833Z,11.55
2023-10-20T03:08:38.425Z,11.73
2023-10-20T03:11:42.146Z,11.96
2023-10-20T03:14:45.511Z,12.17
2023-10-20T03:17:48.001Z,12.05
2023-10-20T03:20:53.942Z,11.95
2023-10-20T03:23:57.152Z,12.16
2023-10-20T03:26:59.938Z,12.35
2023-10-20T03:30:06.967Z,12.50
2023-10-20T03:33:14.129Z,12.30
2023-10-20T03:36:16.587Z,12.38
2023-10-20T03:39:22.441Z,12.24
2023-10-20T03:42:24.698Z,12.35
2023-10-20T03:45:27.149Z,12.34
2023-10-20T03:48:31.015Z,12.23
2023-10-20T03:51:36.483Z,12.33
2023-10-20T03:54:40.148Z,12.39
2023-10-20T03:57:44.145Z,12.43
2023-10-20T04:00:47.617Z,12.32
2023-10-20T04:03:53.107Z,12.77
2023-10-20T04:06:55.815Z,12.57
2023-10-20T04:10:01.357Z,12.74
2023-10-20T04:13:04.473Z,12.67
2023-10-20T04:16:14.619Z,12.51
2023-10-20T04:19:17.353Z,12.56
2023-10-20T04:22:24.678Z,12.53
2023-10-20T04:25:34.525Z,12.31
2023-10-20T04:28:45.569Z,12.21
2023-10-20T04:32:06.644Z,12.48
2023-10-20T04:35:27.764Z,12.49
2023-10-20T04:38:51.059Z,12.42
2023-10-20T04:42:12.367Z,12.41
2023-10-20T04:45:27.209Z,12.47
2023-10-20T04:48:52.168Z,12.23
2023-10-20T04:52:25.249Z,12.38
2023-10-20T04:55:33.985Z,12.38
2023-10-20T04:58:46.420Z,12.26
2023-10-20T05:01:53.405Z,12.19
2023-10-20T05:05:02.936Z,12.10
2023-10-20T05:08:18.819Z,12.17
2023-10-20T05:11:30.410Z,12.26
2023-10-20T05:14:39.382Z,12.04
2023-10-20T05:17:43.594Z,12.21
2023-10-20T05:20:50.316Z,12.07
2023-10-20T05:23:52.866Z,12.19
2023-10-20T05:26:59.932Z,12.33
2023-10-20T05:30:07.380Z,12.33
2023-10-20T05:36:35.804Z,12.34
2023-10-20T05:39:40.486Z,12.43
2023-10-20T05:42:50.548Z,12.25
2023-10-20T05:46:00.293Z,12.28
2023-10-20T05:49:04.067Z,12.32
2023-10-20T05:52:15.786Z,12.49
2023-10-20T05:55:25.253Z,12.47
2023-10-20T05:58:34.966Z,12.64
2023-10-20T06:01:41.457Z,12.86
2023-10-20T06:14:06.838Z,12.83
2023-10-20T06:17:54.177Z,12.84
2023-10-20T06:21:11.470Z,12.76
2023-10-20T06:24:24.705Z,12.91
2023-10-20T06:27:33.491Z,13.04
2023-10-20T06:30:47.106Z,12.86
2023-10-20T06:34:02.753Z,12.90
2023-10-20T06:40:54.029Z,13.13
2023-10-20T06:44:03.594Z,13.15
2023-10-20T06:47:07.354Z,13.37
2023-10-20T06:50:25.270Z,13.50
2023-10-20T06:53:32.232Z,13.61
2023-10-20T06:57:45.845Z,13.43
2023-10-20T07:06:01.775Z,13.80
2023-10-20T07:09:29.832Z,13.67
2023-10-20T07:12:35.951Z,13.95
2023-10-20T07:15:44.558Z,13.93
2023-10-20T07:18:49.481Z,14.02
2023-10-20T07:21:55.427Z,13.90
2023-10-20T07:25:01.232Z,14.09
2023-10-20T07:28:16.250Z,14.00
2023-10-20T07:31:23.089Z,13.97
2023-10-20T07:34:31.887Z,14.16
2023-10-20T07:37:35.080Z,14.11
2023-10-20T07:40:41.574Z,14.40
2023-10-20T07:43:44.463Z,14.53
2023-10-20T07:46:54.610Z,14.76
2023-10-20T07:50:03.406Z,14.80
2023-10-20T07:53:20.018Z,14.73
2023-10-20T07:56:29.524Z,14.79
2023-10-20T07:59:49.543Z,14.99
2023-10-20T08:03:36.522Z,15.04
2023-10-20T08:10:13.317Z,15.00
2023-10-20T08:13:16.679Z,15.11
2023-10-20T08:16:22.888Z,15.09
2023-10-20T08:19:36.683Z,15.35
2023-10-20T08:22:40.058Z,15.42
2023-10-20T08:25:43.090Z,15.36
2023-10-20T08:28:46.191Z,15.37
2023-10-20T08:31:49.626Z,15.34
2023-10-20T08:34:52.720Z,15.56
2023-10-20T08:37:58.997Z,15.55
2023-10-20T08:41:15.334Z,15.69
2023-10-20T08:44:21.573Z,15.96
2023-10-20T08:47:49.616Z,16.42
2023-10-20T08:51:38.379Z,16.48
2023-10-20T08:55:22.499Z,16.17
2023-10-20T08:58:41.923Z,16.49
2023-10-20T09:05:59.020Z,16.39
2023-10-20T09:09:23.756Z,16.46
2023-10-20T09:12:35.131Z,16.64
2023-10-20T09:15:41.722Z,16.42
2023-10-20T09:19:14.845Z,16.50
2023-10-20T09:27:07.437Z,16.68
2023-10-20T09:30:14.803Z,16.92
2023-10-20T09:33:19.443Z,16.87
2023-10-20T09:36:34.016Z,17.04
2023-10-20T09:39:51.484Z,17.18
2023-10-20T09:43:38.523Z,17.32
2023-10-20T09:47:04.485Z,17.50
2023-10-20T09:50:07.406Z,17.40
2023-10-20T09:54:31.139Z,17.63
2023-10-20T09:57:34.860Z,17.65
2023-10-20T10:18:17.661Z,18.98
2023-10-20T10:21:31.410Z,18.93
2023-10-20T10:24:43.585Z,18.97
2023-10-20T10:27:46.579Z,18.70
2023-10-20T10:30:55.953Z,18.62
2023-10-20T10:34:03.197Z,18.73
2023-10-20T10:37:10.390Z,18.82
2023-10-20T10:40:20.416Z,19.00
2023-10-20T10:43:26.074Z,19.31
2023-10-20T10:46:42.883Z,19.57
2023-10-20T10:49:56.513Z,19.63
2023-10-20T10:53:03.344Z,19.28
2023-10-20T10:56:10.792Z,19.44
2023-10-20T10:59:16.275Z,19.63
2023-10-20T11:02:19.467Z,19.60
2023-10-20T11:05:28.717Z,19.60
2023-10-20T11:08:32.881Z,19.63
2023-10-20T11:11:56.902Z,19.64
2023-10-20T11:23:41.409Z,19.69
2023-10-20T11:27:07.014Z,20.27
2023-10-20T11:30:25.081Z,20.47
2023-10-20T11:33:31.000Z,21.17
2023-10-20T11:36:38.592Z,21.83
2023-10-20T11:39:41.159Z,21.83
2023-10-20T11:42:56.596Z,21.82
2023-10-20T11:46:08.364Z,22.18
2023-10-20T11:49:24.755Z,22.34
2023-10-20T11:52:55.080Z,22.70
2023-10-20T11:56:00.258Z,22.37
2023-10-20T11:59:05.627Z,22.33
2023-10-20T12:02:09.301Z,22.48
2023-10-20T12:05:15.952Z,22.40
2023-10-20T12:08:20.285Z,22.65
2023-10-20T12:11:27.604Z,22.50
2023-10-20T12:14:35.954Z,22.19
2023-10-20T12:22:08.541Z,21.98
2023-10-20T12:25:15.021Z,22.31
2023-10-20T12:28:22.869Z,22.35
2023-10-20T12:31:27.869Z,22.27
2023-10-20T12:34:33.189Z,22.30
2023-10-20T12:37:36.230Z,22.07
2023-10-20T12:40:41.707Z,21.76
2023-10-20T12:43:48.616Z,21.74
2023-10-20T12:46:52.057Z,21.42
2023-10-20T12:49:58.642Z,21.57
2023-10-20T12:53:04.180Z,21.66
2023-10-20T12:56:09.441Z,21.91
2023-10-20T12:59:12.656Z,22.42
2023-10-20T13:02:15.236Z,22.39
2023-10-20T13:05:19.248Z,22.23
2023-10-20T13:08:21.707Z,22.46
2023-10-20T13:11:24.876Z,22.77
2023-10-20T13:14:28.089Z,22.88
2023-10-20T13:17:32.137Z,23.10
2023-10-20T13:20:36.302Z,23.14
2023-10-20T13:23:39.263Z,23.06
2023-10-20T13:26:41.703Z,23.03
2023-10-20T13:29:45.238Z,22.96
2023-10-20T13:32:50.223Z,22.86
2023-10-20T13:35:53.277Z,22.78
2023-10-20T13:38:58.288Z,22.50
2023-10-20T13:42:03.703Z,22.54
2023-10-20T13:45:09.311Z,22.37
2023-10-20T13:48:11.575Z,22.15
2023-10-20T13:51:14.848Z,22.22
2023-10-20T13:54:20.798Z,22.14
2023-10-20T13:57:26.594Z,22.10
2023-10-20T14:00:31.273Z,22.01
2023-10-20T14:03:36.754Z,21.84
2023-10-20T14:06:39.391Z,21.90
2023-10-20T14:09:42.261Z,21.77
2023-10-20T14:12:48.058Z,21.82
2023-10-20T14:15:53.475Z,21.62
2023-10-20T14:18:56.726Z,21.50
2023-10-20T14:21:59.171Z,21.65
2023-10-20T14:25:01.653Z,21.72
2023-10-20T14:28:07.264Z,21.61
2023-10-20T14:31:09.967Z,21.67
2023-10-20T14:34:12.391Z,21.62
2023-10-20T14:37:14.450Z,21.62
2023-10-20T14:40:16.801Z,21.61
2023-10-20T14:43:19.667Z,21.48
2023-10-20T14:46:23.113Z,21.24
2023-10-20T14:49:25.961Z,21.14
2023-10-20T14:52:30.834Z,21.03
2023-10-20T14:55:37.795Z,20.94
2023-10-20T14:58:41.696Z,20.83
2023-10-20T15:01:46.569Z,20.75
2023-10-20T15:04:52.155Z,20.61
2023-10-20T15:07:54.820Z,20.67
2023-10-20T15:10:57.381Z,20.70
2023-10-20T15:14:01.889Z,20.53
2023-10-20T15:17:07.890Z,20.58
2023-10-20T15:20:11.337Z,20.42
2023-10-20T15:23:18.299Z,20.52
2023-10-20T15:26:23.544Z,20.55
2023-10-20T15:29:27.249Z,20.57
2023-10-20T15:32:30.031Z,20.62
2023-10-20T15:35:35.398Z,20.59
2023-10-20T15:38:40.352Z,20.26
2023-10-20T15:41:45.789Z,20.56
2023-10-20T15:44:48.726Z,20.58
2023-10-20T15:47:54.894Z,20.90
2023-10-20T15:50:57.207Z,20.74
2023-10-20T15:54:00.097Z,20.71
2023-10-20T15:57:03.458Z,20.64
2023-10-20T16:00:06.351Z,20.68
2023-10-20T16:03:08.574Z,20.58
2023-10-20T16:06:14.014Z,20.30
2023-10-20T16:09:19.601Z,20.53
2023-10-20T16:12:22.303Z,20.68
2023-10-20T16:15:24.972Z,20.62
2023-10-20T16:18:27.383Z,20.52
2023-10-20T16:21:29.724Z,20.31
2023-10-20T16:24:31.836Z,20.21
2023-10-20T16:27:34.096Z,20.06
2023-10-20T16:30:37.010Z,20.14
2023-10-20T16:33:39.644Z,20.14
2023-10-20T16:36:41.934Z,20.01
2023-10-20T16:39:45.186Z,19.88
2023-10-20T16:42:48.242Z,19.87
2023-10-20T16:45:51.693Z,19.82
2023-10-20T16:48:55.381Z,19.75
2023-10-20T16:51:57.872Z,19.64
2023-10-20T16:55:00.488Z,19.49
2023-10-20T16:58:02.794Z,19.48
2023-10-20T17:01:07.881Z,19.34
2023-10-20T17:04:10.592Z,19.09
2023-10-20T17:07:13.172Z,19.17
2023-10-20T17:10:16.131Z,19.06
2023-10-20T17:13:18.838Z,19.07
2023-10-20T17:16:21.195Z,18.92
2023-10-20T17:19:23.530Z,19.07
2023-10-20T17:22:25.451Z,19.05
2023-10-20T17:25:27.527Z,19.13
2023-10-20T17:28:32.154Z,19.15
2023-10-20T17:31:34.686Z,19.12
2023-10-20T17:34:38.707Z,19.04
2023-10-20T17:37:41.935Z,18.99
2023-10-20T17:40:45.641Z,18.94
2023-10-20T17:43:49.698Z,18.91
2023-10-20T17:46:54.632Z,18.91
2023-10-20T17:49:57.080Z,18.71
2023-10-20T17:53:01.669Z,18.75
2023-10-20T17:56:07.396Z,18.75
2023-10-20T17:59:09.643Z,18.71
2023-10-20T18:02:13.779Z,18.69
2023-10-20T18:05:16.414Z,18.61
2023-10-20T18:08:18.809Z,18.66
2023-10-20T18:11:22.866Z,18.64
2023-10-20T18:14:26.031Z,18.69
2023-10-20T18:17:28.773Z,18.61
2023-10-20T18:20:31.570Z,18.57
2023-10-20T18:23:36.361Z,18.53
2023-10-20T18:26:39.489Z,18.51
2023-10-20T18:29:43.687Z,18.49
2023-10-20T18:32:47.063Z,18.37
2023-10-20T18:35:50.345Z,18.38
2023-10-20T18:38:54.157Z,18.37
2023-10-20T18:41:56.393Z,18.37
2023-10-20T18:45:00.397Z,18.62
2023-10-20T18:48:03.312Z,18.65
2023-10-20T18:51:07.896Z,18.78
2023-10-20T18:54:14.081Z,18.76
2023-10-20T18:57:16.354Z,18.98
2023-10-20T19:00:19.117Z,18.89
2023-10-20T19:03:24.549Z,18.83
2023-10-20T19:06:27.784Z,18.84
2023-10-20T19:09:30.885Z,18.73
2023-10-20T19:12:34.417Z,18.73
2023-10-20T19:15:39.567Z,18.75
2023-10-20T19:18:44.583Z,18.60
2023-10-20T19:21:47.218Z,18.64
2023-10-20T19:24:50.000Z,18.55
2023-10-20T19:27:53.563Z,18.45
2023-10-20T19:31:01.619Z,18.43
2023-10-20T19:34:06.231Z,18.32
2023-10-20T19:37:10.654Z,18.24
2023-10-20T19:40:13.153Z,18.22
2023-10-20T19:43:15.984Z,18.22
2023-10-20T19:46:18.409Z,18.14
2023-10-20T19:49:20.847Z,18.08
2023-10-20T19:52:24.139Z,18.00
2023-10-20T19:55:26.697Z,17.97
2023-10-20T19:58:29.158Z,17.90
2023-10-20T20:01:32.889Z,17.87
2023-10-20T20:04:36.048Z,17.83
2023-10-20T20:07:38.488Z,17.81
2023-10-20T20:10:49.910Z,17.83
2023-10-20T20:13:53.438Z,17.81
2023-10-20T20:16:57.786Z,17.81
2023-10-20T20:20:05.934Z,17.77
2023-10-20T20:23:08.196Z,17.73
2023-10-20T20:26:10.534Z,17.70
2023-10-20T20:29:12.588Z,17.64
2023-10-20T20:32:16.286Z,17.60
2023-10-20T20:35:18.952Z,17.52
2023-10-20T20:38:21.587Z,17.47
2023-10-20T20:41:28.592Z,17.39
2023-10-20T20:44:35.515Z,17.52
2023-10-20T20:47:38.272Z,17.51
2023-10-20T20:50:43.644Z,17.36
2023-10-20T20:53:54.202Z,17.41
2023-10-20T20:56:58.313Z,17.23
2023-10-20T21:00:03.094Z,17.42
2023-10-20T21:03:05.704Z,17.42
2023-10-20T21:06:10.662Z,17.34
2023-10-20T21:09:14.272Z,17.25
2023-10-20T21:12:19.964Z,17.26
2023-10-20T21:15:22.354Z,17.18
2023-10-20T21:18:24.589Z,17.20
2023-10-20T21:21:28.382Z,17.32
2023-10-20T21:24:30.718Z,17.24
2023-10-20T21:27:33.189Z,17.23
2023-10-20T21:30:38.172Z,17.16
2023-10-20T21:33:40.933Z,17.06
2023-10-20T21:36:44.049Z,16.98
2023-10-20T21:39:47.823Z,16.91
2023-10-20T21:42:50.072Z,16.93
2023-10-20T21:45:59.109Z,16.90
2023-10-20T21:49:02.253Z,16.92
2023-10-20T21:52:05.038Z,16.97
2023-10-20T21:55:10.489Z,16.93
2023-10-20T21:58:13.461Z,16.87
2023-10-20T22:01:20.095Z,16.88
2023-10-20T22:04:23.310Z,16.81
2023-10-20T22:07:26.652Z,16.77
2023-10-20T22:10:29.364Z,16.78
2023-10-20T22:13:32.016Z,16.82
2023-10-20T22:16:35.297Z,16.74
2023-10-20T22:19:37.579Z,16.82
2023-10-20T22:22:39.776Z,16.75
2023-10-20T22:25:42.283Z,16.59
2023-10-20T22:28:46.657Z,16.58
2023-10-20T22:31:49.721Z,16.56
2023-10-20T22:34:52.404Z,16.66
2023-10-20T22:37:54.980Z,16.61
2023-10-20T22:40:58.027Z,16.59
2023-10-20T22:44:00.902Z,16.64
2023-10-20T22:47:03.361Z,16.70
2023-10-20T22:50:08.726Z,16.70
2023-10-20T22:53:13.529Z,16.66
2023-10-20T22:56:16.361Z,16.64
2023-10-20T22:59:18.938Z,16.59
2023-10-20T23:02:22.999Z,16.62
2023-10-20T23:05:25.433Z,16.59
2023-10-20T23:08:28.698Z,16.59
2023-10-20T23:11:30.711Z,16.55
2023-10-20T23:14:32.794Z,16.45
2023-10-20T23:17:35.091Z,16.46
2023-10-20T23:20:37.359Z,16.45
2023-10-20T23:23:39.482Z,16.47
2023-10-20T23:26:42.700Z,16.48
2023-10-20T23:29:44.720Z,16.49
2023-10-20T23:32:47.421Z,16.60
2023-10-20T23:35:50.484Z,16.61
2023-10-20T23:38:53.011Z,16.60
2023-10-20T23:41:56.470Z,16.56
2023-10-20T23:44:58.923Z,16.58
2023-10-20T23:48:01.766Z,16.52
2023-10-20T23:51:05.354Z,16.57
2023-10-20T23:54:08.580Z,16.57
2023-10-20T23:57:16.188Z,16.45
